KGGW/GGW METAR and TAF weather

Enter ICAO airport designator
Station Type Date Time Source
KGGW METAR 2023/02/05 12:53 UTC NOAA

KGGW 051253Z AUTO 12010KT 10SM CLR M07/M09 A2985 RMK AO2 SLP138 I1000 T10721094


Station Type Date Time Source
KGGW Decoded METAR 2023/02/05 12:53 UTC NOAA

GLASGOW INTERNATIONAL AIRPORT , MT, United States (KGGW) 48-13N 106-37W 693M
Feb 05, 2023 - 07:53 AM EST / 2023.02.05 1253 UTC
Wind: from the ESE (120 degrees) at 12 MPH (10 KT):0
Visibility: 10 mile(s):0
Sky conditions: clear
Temperature: 19.0 F (-7.2 C)
Windchill: 6 F (-14 C):1
Dew Point: 15.1 F (-9.4 C)
Relative Humidity: 84%
Pressure (altimeter): 29.85 in. Hg (1010 hPa)
ob: KGGW 051253Z AUTO 12010KT 10SM CLR M07/M09 A2985 RMK AO2 SLP138 I1000 T10721094
cycle: 13

Station Type Date Time Source
KGGW TAF 2023/02/05 12:22 UTC NOAA

TAF KGGW 051120Z 0512/0612 VRB05KT 6SM BR SKC
TEMPO 0512/0516 2SM BR SCT003
FM051700 13009KT P6SM SCT200
FM060500 28010KT P6SM BKN100

Example: see airport list